sensor_id;sensor_type;location;lat;lon;timestamp;pressure;altitude;pressure_sealevel;temperature;humidity
13553;BME280;6847;48.830;9.116;2023-02-24T00:01:49;97471.69;;;13.44;57.87
13553;BME280;6847;48.830;9.116;2023-02-24T00:04:18;97471.09;;;13.47;58.28
13553;BME280;6847;48.830;9.116;2023-02-24T00:06:46;97453.88;;;13.38;58.26
13553;BME280;6847;48.830;9.116;2023-02-24T00:09:16;97476.72;;;13.51;57.72
13553;BME280;6847;48.830;9.116;2023-02-24T00:11:46;97289.31;;;12.33;58.49
13553;BME280;6847;48.830;9.116;2023-02-24T00:14:15;97417.88;;;13.19;58.37
13553;BME280;6847;48.830;9.116;2023-02-24T00:16:43;97469.84;;;13.53;58.61
13553;BME280;6847;48.830;9.116;2023-02-24T00:19:12;97353.81;;;12.77;58.48
13553;BME280;6847;48.830;9.116;2023-02-24T00:21:41;97426.41;;;13.26;57.92
13553;BME280;6847;48.830;9.116;2023-02-24T00:24:08;97467.44;;;13.52;58.46
13553;BME280;6847;48.830;9.116;2023-02-24T00:26:39;97463.94;;;13.51;58.36
13553;BME280;6847;48.830;9.116;2023-02-24T00:29:07;97439.78;;;13.36;58.30
13553;BME280;6847;48.830;9.116;2023-02-24T00:31:35;97456.19;;;13.45;58.42
13553;BME280;6847;48.830;9.116;2023-02-24T00:34:06;97454.56;;;13.44;58.77
13553;BME280;6847;48.830;9.116;2023-02-24T00:36:35;97442.50;;;13.36;58.65
13553;BME280;6847;48.830;9.116;2023-02-24T00:39:05;97449.44;;;13.42;58.63
13553;BME280;6847;48.830;9.116;2023-02-24T00:41:35;97450.56;;;13.41;58.19
13553;BME280;6847;48.830;9.116;2023-02-24T00:44:05;97443.53;;;13.40;59.06
13553;BME280;6847;48.830;9.116;2023-02-24T00:46:36;97445.53;;;13.34;58.95
13553;BME280;6847;48.830;9.116;2023-02-24T00:49:06;97308.59;;;12.45;58.74
13553;BME280;6847;48.830;9.116;2023-02-24T00:51:37;97352.41;;;12.66;58.67
13553;BME280;6847;48.830;9.116;2023-02-24T00:54:04;97403.22;;;12.92;59.07
13553;BME280;6847;48.830;9.116;2023-02-24T00:56:39;97444.97;;;13.10;59.04
13553;BME280;6847;48.830;9.116;2023-02-24T00:59:09;97446.34;;;13.08;58.89
13553;BME280;6847;48.830;9.116;2023-02-24T01:01:38;97437.09;;;13.09;59.39
13553;BME280;6847;48.830;9.116;2023-02-24T01:04:06;97447.47;;;13.07;59.14
13553;BME280;6847;48.830;9.116;2023-02-24T01:06:37;97425.03;;;12.87;59.19
13553;BME280;6847;48.830;9.116;2023-02-24T01:09:05;97439.91;;;13.04;59.11
13553;BME280;6847;48.830;9.116;2023-02-24T01:11:37;97434.19;;;13.05;59.32
13553;BME280;6847;48.830;9.116;2023-02-24T01:14:27;97395.06;;;12.79;59.01
13553;BME280;6847;48.830;9.116;2023-02-24T01:16:55;97430.06;;;13.08;59.50
13553;BME280;6847;48.830;9.116;2023-02-24T01:19:25;97431.66;;;13.09;59.59
13553;BME280;6847;48.830;9.116;2023-02-24T01:21:56;97436.00;;;13.10;59.37
13553;BME280;6847;48.830;9.116;2023-02-24T01:24:23;97427.84;;;13.10;59.49
13553;BME280;6847;48.830;9.116;2023-02-24T01:26:52;97425.94;;;13.10;59.30
13553;BME280;6847;48.830;9.116;2023-02-24T01:29:22;97426.22;;;13.09;59.47
13553;BME280;6847;48.830;9.116;2023-02-24T01:31:50;97421.69;;;13.04;58.90
13553;BME280;6847;48.830;9.116;2023-02-24T01:34:23;97424.09;;;13.06;59.32
13553;BME280;6847;48.830;9.116;2023-02-24T01:36:50;97412.13;;;13.07;59.43
13553;BME280;6847;48.830;9.116;2023-02-24T01:39:17;97253.06;;;12.01;59.32
13553;BME280;6847;48.830;9.116;2023-02-24T01:41:47;97419.19;;;13.08;58.76
13553;BME280;6847;48.830;9.116;2023-02-24T01:47:23;97410.53;;;13.06;59.48
13553;BME280;6847;48.830;9.116;2023-02-24T01:49:54;97404.09;;;13.02;58.98
13553;BME280;6847;48.830;9.116;2023-02-24T01:52:23;97393.47;;;12.91;59.37
13553;BME280;6847;48.830;9.116;2023-02-24T01:54:56;97401.41;;;13.02;59.45
13553;BME280;6847;48.830;9.116;2023-02-24T01:57:26;97407.31;;;13.04;59.21
13553;BME280;6847;48.830;9.116;2023-02-24T01:59:57;97368.13;;;12.82;59.31
13553;BME280;6847;48.830;9.116;2023-02-24T02:02:37;97405.09;;;13.06;59.90
13553;BME280;6847;48.830;9.116;2023-02-24T02:05:08;97400.75;;;13.05;59.66
13553;BME280;6847;48.830;9.116;2023-02-24T02:07:36;97391.63;;;13.01;59.38
13553;BME280;6847;48.830;9.116;2023-02-24T02:10:07;97392.22;;;12.97;59.44
13553;BME280;6847;48.830;9.116;2023-02-24T02:12:37;97398.47;;;12.98;59.27
13553;BME280;6847;48.830;9.116;2023-02-24T02:15:10;97388.72;;;12.97;59.98
13553;BME280;6847;48.830;9.116;2023-02-24T02:17:46;97387.59;;;12.98;59.86
13553;BME280;6847;48.830;9.116;2023-02-24T02:20:52;97378.13;;;12.95;59.54
13553;BME280;6847;48.830;9.116;2023-02-24T02:23:49;97373.94;;;12.89;59.71
13553;BME280;6847;48.830;9.116;2023-02-24T02:30:06;97380.09;;;12.81;59.41
13553;BME280;6847;48.830;9.116;2023-02-24T02:33:08;97381.50;;;12.79;60.19
13553;BME280;6847;48.830;9.116;2023-02-24T02:35:51;97364.09;;;12.66;59.72
13553;BME280;6847;48.830;9.116;2023-02-24T02:38:29;97301.59;;;12.30;59.91
13553;BME280;6847;48.830;9.116;2023-02-24T02:41:06;97370.53;;;12.70;59.55
13553;BME280;6847;48.830;9.116;2023-02-24T02:43:38;97313.13;;;12.36;60.02
13553;BME280;6847;48.830;9.116;2023-02-24T02:46:10;97342.28;;;12.57;59.21
13553;BME280;6847;48.830;9.116;2023-02-24T02:48:45;97322.28;;;12.40;59.85
13553;BME280;6847;48.830;9.116;2023-02-24T02:51:23;97357.34;;;12.64;60.11
13553;BME280;6847;48.830;9.116;2023-02-24T02:53:57;97349.03;;;12.60;60.33
13553;BME280;6847;48.830;9.116;2023-02-24T02:56:31;97351.22;;;12.58;59.76
13553;BME280;6847;48.830;9.116;2023-02-24T02:59:01;97330.94;;;12.42;59.31
13553;BME280;6847;48.830;9.116;2023-02-24T03:02:01;97344.00;;;12.53;60.16
13553;BME280;6847;48.830;9.116;2023-02-24T03:04:39;97339.97;;;12.51;60.19
13553;BME280;6847;48.830;9.116;2023-02-24T03:07:10;97344.91;;;12.49;59.80
13553;BME280;6847;48.830;9.116;2023-02-24T03:09:40;97338.38;;;12.50;59.76
13553;BME280;6847;48.830;9.116;2023-02-24T03:12:14;97322.28;;;12.40;59.74
13553;BME280;6847;48.830;9.116;2023-02-24T03:14:46;97329.72;;;12.48;60.67
13553;BME280;6847;48.830;9.116;2023-02-24T03:17:18;97328.63;;;12.49;59.75
13553;BME280;6847;48.830;9.116;2023-02-24T03:19:49;97328.69;;;12.44;60.53
13553;BME280;6847;48.830;9.116;2023-02-24T03:22:30;97326.09;;;12.39;60.33
13553;BME280;6847;48.830;9.116;2023-02-24T03:24:59;97315.84;;;12.36;60.11
13553;BME280;6847;48.830;9.116;2023-02-24T03:27:28;97319.06;;;12.38;60.17
13553;BME280;6847;48.830;9.116;2023-02-24T03:30:00;97306.00;;;12.40;60.47
13553;BME280;6847;48.830;9.116;2023-02-24T03:32:36;97310.19;;;12.46;60.65
13553;BME280;6847;48.830;9.116;2023-02-24T03:35:12;97298.97;;;12.39;59.92
13553;BME280;6847;48.830;9.116;2023-02-24T03:37:41;97302.56;;;12.48;60.03
13553;BME280;6847;48.830;9.116;2023-02-24T03:40:10;97314.91;;;12.54;60.55
13553;BME280;6847;48.830;9.116;2023-02-24T03:42:43;97320.34;;;12.54;60.32
13553;BME280;6847;48.830;9.116;2023-02-24T03:45:14;97292.50;;;12.35;60.26
13553;BME280;6847;48.830;9.116;2023-02-24T03:47:42;97319.25;;;12.55;60.00
13553;BME280;6847;48.830;9.116;2023-02-24T03:50:14;97319.25;;;12.55;60.82
13553;BME280;6847;48.830;9.116;2023-02-24T03:52:46;97320.34;;;12.54;60.46
13553;BME280;6847;48.830;9.116;2023-02-24T03:55:25;97320.34;;;12.54;60.51
13553;BME280;6847;48.830;9.116;2023-02-24T03:58:06;97303.97;;;12.45;60.12
13553;BME280;6847;48.830;9.116;2023-02-24T04:00:39;97319.25;;;12.55;60.89
13553;BME280;6847;48.830;9.116;2023-02-24T04:03:19;97320.84;;;12.56;60.63
13553;BME280;6847;48.830;9.116;2023-02-24T04:05:57;97281.28;;;12.28;59.95
13553;BME280;6847;48.830;9.116;2023-02-24T04:08:35;97320.97;;;12.51;60.42
13553;BME280;6847;48.830;9.116;2023-02-24T04:11:10;97323.69;;;12.51;60.10
13553;BME280;6847;48.830;9.116;2023-02-24T04:13:43;97329.13;;;12.51;60.46
13553;BME280;6847;48.830;9.116;2023-02-24T04:16:18;97319.38;;;12.50;60.45
13553;BME280;6847;48.830;9.116;2023-02-24T04:18:54;97320.47;;;12.49;60.36
13553;BME280;6847;48.830;9.116;2023-02-24T04:21:26;97315.34;;;12.47;60.45
13553;BME280;6847;48.830;9.116;2023-02-24T04:23:58;97287.50;;;12.28;60.57
13553;BME280;6847;48.830;9.116;2023-02-24T04:26:31;97310.84;;;12.43;60.20
13553;BME280;6847;48.830;9.116;2023-02-24T04:28:58;97304.38;;;12.39;61.17
13553;BME280;6847;48.830;9.116;2023-02-24T04:31:27;97279.88;;;12.16;60.07
13553;BME280;6847;48.830;9.116;2023-02-24T04:33:55;97299.56;;;12.36;60.42
13553;BME280;6847;48.830;9.116;2023-02-24T04:36:28;97298.56;;;12.32;60.35
13553;BME280;6847;48.830;9.116;2023-02-24T04:39:01;97301.78;;;12.34;60.69
13553;BME280;6847;48.830;9.116;2023-02-24T04:41:29;97309.44;;;12.32;60.95
13553;BME280;6847;48.830;9.116;2023-02-24T04:43:56;97306.72;;;12.32;60.28
13553;BME280;6847;48.830;9.116;2023-02-24T04:46:22;97305.91;;;12.31;60.35
13553;BME280;6847;48.830;9.116;2023-02-24T04:48:49;97290.72;;;12.30;60.28
13553;BME280;6847;48.830;9.116;2023-02-24T04:51:18;97298.56;;;12.32;60.80
13553;BME280;6847;48.830;9.116;2023-02-24T04:53:48;97290.13;;;12.33;60.47
13553;BME280;6847;48.830;9.116;2023-02-24T04:56:26;97287.09;;;12.35;60.67
13553;BME280;6847;48.830;9.116;2023-02-24T04:58:53;97287.72;;;12.32;60.81
13553;BME280;6847;48.830;9.116;2023-02-24T05:01:22;97277.44;;;12.29;60.59
13553;BME280;6847;48.830;9.116;2023-02-24T05:03:48;97254.63;;;12.16;60.06
13553;BME280;6847;48.830;9.116;2023-02-24T05:06:17;97273.13;;;12.28;60.67
13553;BME280;6847;48.830;9.116;2023-02-24T05:08:45;97266.00;;;12.32;60.71
13553;BME280;6847;48.830;9.116;2023-02-24T05:11:13;97264.38;;;12.31;60.74
13553;BME280;6847;48.830;9.116;2023-02-24T05:13:42;97260.38;;;12.28;60.79
13553;BME280;6847;48.830;9.116;2023-02-24T05:16:13;97254.53;;;12.21;60.55
13553;BME280;6847;48.830;9.116;2023-02-24T05:18:40;97254.34;;;12.17;60.95
13553;BME280;6847;48.830;9.116;2023-02-24T05:21:10;97250.63;;;12.13;60.72
13553;BME280;6847;48.830;9.116;2023-02-24T05:23:57;97250.13;;;12.11;60.82
13553;BME280;6847;48.830;9.116;2023-02-24T05:26:28;97243.09;;;12.10;60.49
13553;BME280;6847;48.830;9.116;2023-02-24T05:28:59;97240.97;;;12.07;60.70
13553;BME280;6847;48.830;9.116;2023-02-24T05:31:27;97240.38;;;12.10;61.10
13553;BME280;6847;48.830;9.116;2023-02-24T05:33:56;97233.84;;;12.11;61.09
13553;BME280;6847;48.830;9.116;2023-02-24T05:36:24;97239.28;;;12.11;60.59
13553;BME280;6847;48.830;9.116;2023-02-24T05:38:54;97194.47;;;11.86;60.44
13553;BME280;6847;48.830;9.116;2023-02-24T05:41:23;97233.84;;;12.11;60.90
13553;BME280;6847;48.830;9.116;2023-02-24T05:44:02;97221.91;;;12.12;61.12
13553;BME280;6847;48.830;9.116;2023-02-24T05:46:36;97218.56;;;12.15;60.67
13553;BME280;6847;48.830;9.116;2023-02-24T05:49:05;97226.91;;;12.19;60.97
13553;BME280;6847;48.830;9.116;2023-02-24T05:51:35;97209.03;;;12.04;60.57
13553;BME280;6847;48.830;9.116;2023-02-24T05:54:04;97215.97;;;12.24;61.02
13553;BME280;6847;48.830;9.116;2023-02-24T05:56:37;97221.56;;;12.28;61.05
13553;BME280;6847;48.830;9.116;2023-02-24T05:59:11;97217.16;;;12.32;60.66
13553;BME280;6847;48.830;9.116;2023-02-24T06:01:43;97218.13;;;12.36;60.89
13553;BME280;6847;48.830;9.116;2023-02-24T06:04:12;97219.13;;;12.40;61.43
13553;BME280;6847;48.830;9.116;2023-02-24T06:06:47;97115.22;;;11.76;60.75
13553;BME280;6847;48.830;9.116;2023-02-24T06:09:18;97217.91;;;12.46;60.69
13553;BME280;6847;48.830;9.116;2023-02-24T06:11:49;97218.41;;;12.48;61.13
13553;BME280;6847;48.830;9.116;2023-02-24T06:14:17;97214.59;;;12.49;61.40
13553;BME280;6847;48.830;9.116;2023-02-24T06:16:45;97211.38;;;12.47;61.13
13553;BME280;6847;48.830;9.116;2023-02-24T06:19:13;97196.41;;;12.36;60.96
13553;BME280;6847;48.830;9.116;2023-02-24T06:21:40;97204.97;;;12.43;61.15
13553;BME280;6847;48.830;9.116;2023-02-24T06:24:10;97163.00;;;12.13;60.96
13553;BME280;6847;48.830;9.116;2023-02-24T06:26:39;97207.47;;;12.39;61.45
13553;BME280;6847;48.830;9.116;2023-02-24T06:29:11;97204.75;;;12.39;60.51
13553;BME280;6847;48.830;9.116;2023-02-24T06:31:42;97168.09;;;12.14;61.38
13553;BME280;6847;48.830;9.116;2023-02-24T06:34:12;97206.47;;;12.35;60.82
13553;BME280;6847;48.830;9.116;2023-02-24T06:36:39;97202.94;;;12.35;60.79
13553;BME280;6847;48.830;9.116;2023-02-24T06:39:08;97201.66;;;12.32;61.14
13553;BME280;6847;48.830;9.116;2023-02-24T06:41:39;97207.91;;;12.33;60.85
13553;BME280;6847;48.830;9.116;2023-02-24T06:44:07;97198.66;;;12.34;60.86
13553;BME280;6847;48.830;9.116;2023-02-24T06:46:34;97196.22;;;12.32;61.04
13553;BME280;6847;48.830;9.116;2023-02-24T06:49:04;97197.03;;;12.33;61.50
13553;BME280;6847;48.830;9.116;2023-02-24T06:51:34;97198.44;;;12.30;61.31
13553;BME280;6847;48.830;9.116;2023-02-24T06:54:01;97147.84;;;11.98;60.55
13553;BME280;6847;48.830;9.116;2023-02-24T06:56:28;97191.19;;;12.26;60.57
13553;BME280;6847;48.830;9.116;2023-02-24T06:58:54;97172.94;;;12.17;61.62
13553;BME280;6847;48.830;9.116;2023-02-24T07:01:25;97192.00;;;12.26;61.18
13553;BME280;6847;48.830;9.116;2023-02-24T07:03:54;97192.81;;;12.27;60.59
13553;BME280;6847;48.830;9.116;2023-02-24T07:06:42;97196.34;;;12.27;60.76
13553;BME280;6847;48.830;9.116;2023-02-24T07:09:11;97182.97;;;12.17;60.55
13553;BME280;6847;48.830;9.116;2023-02-24T07:11:41;97192.81;;;12.27;60.86
13553;BME280;6847;48.830;9.116;2023-02-24T07:14:09;97190.41;;;12.25;61.34
13553;BME280;6847;48.830;9.116;2023-02-24T07:16:39;97194.84;;;12.21;60.49
13553;BME280;6847;48.830;9.116;2023-02-24T07:19:10;97187.00;;;12.19;61.01
13553;BME280;6847;48.830;9.116;2023-02-24T07:21:43;97189.72;;;12.19;60.90
13553;BME280;6847;48.830;9.116;2023-02-24T07:24:16;97189.22;;;12.17;61.27
13553;BME280;6847;48.830;9.116;2023-02-24T07:26:54;97185.00;;;12.11;60.88
13553;BME280;6847;48.830;9.116;2023-02-24T07:29:22;97186.13;;;12.10;61.43
13553;BME280;6847;48.830;9.116;2023-02-24T07:31:52;97185.00;;;12.11;60.63
13553;BME280;6847;48.830;9.116;2023-02-24T07:34:22;97109.50;;;11.64;60.89
13553;BME280;6847;48.830;9.116;2023-02-24T07:36:51;97179.59;;;12.11;61.30
13553;BME280;6847;48.830;9.116;2023-02-24T07:39:20;97184.38;;;12.14;61.26
13553;BME280;6847;48.830;9.116;2023-02-24T07:41:49;97171.31;;;12.16;61.92
13553;BME280;6847;48.830;9.116;2023-02-24T07:44:20;97175.03;;;12.20;60.98
13553;BME280;6847;48.830;9.116;2023-02-24T07:46:49;97139.22;;;11.96;61.68
13553;BME280;6847;48.830;9.116;2023-02-24T07:49:18;97178.66;;;12.16;61.34
13553;BME280;6847;48.830;9.116;2023-02-24T07:51:46;97164.91;;;12.12;61.33
13553;BME280;6847;48.830;9.116;2023-02-24T07:54:19;97178.47;;;12.12;61.35
13553;BME280;6847;48.830;9.116;2023-02-24T07:56:48;97171.94;;;12.13;60.59
13553;BME280;6847;48.830;9.116;2023-02-24T07:59:25;97171.31;;;12.16;61.40
13553;BME280;6847;48.830;9.116;2023-02-24T08:01:53;97169.91;;;12.19;60.98
13553;BME280;6847;48.830;9.116;2023-02-24T08:04:22;97158.75;;;12.20;61.63
13553;BME280;6847;48.830;9.116;2023-02-24T08:06:49;97148.28;;;12.28;61.10
13553;BME280;6847;48.830;9.116;2023-02-24T08:09:23;97152.38;;;12.39;61.08
13553;BME280;6847;48.830;9.116;2023-02-24T08:12:05;97147.72;;;12.53;61.05
13553;BME280;6847;48.830;9.116;2023-02-24T08:14:34;97150.66;;;12.65;61.16
13553;BME280;6847;48.830;9.116;2023-02-24T08:17:10;97107.69;;;12.45;60.43
13553;BME280;6847;48.830;9.116;2023-02-24T08:19:45;97152.94;;;12.94;60.83
13553;BME280;6847;48.830;9.116;2023-02-24T08:22:13;97148.84;;;13.05;60.54
13553;BME280;6847;48.830;9.116;2023-02-24T08:24:52;97149.41;;;13.16;60.85
13553;BME280;6847;48.830;9.116;2023-02-24T08:27:20;97143.38;;;13.19;60.81
13553;BME280;6847;48.830;9.116;2023-02-24T08:29:48;97142.75;;;13.22;60.26
13553;BME280;6847;48.830;9.116;2023-02-24T08:32:25;97115.75;;;13.03;61.08
13553;BME280;6847;48.830;9.116;2023-02-24T08:34:58;97148.31;;;13.17;61.04
13553;BME280;6847;48.830;9.116;2023-02-24T08:37:28;97137.56;;;13.12;61.12
13553;BME280;6847;48.830;9.116;2023-02-24T08:39:59;97084.13;;;12.76;60.57
13553;BME280;6847;48.830;9.116;2023-02-24T08:42:29;97133.53;;;13.09;61.19
13553;BME280;6847;48.830;9.116;2023-02-24T08:44:59;97123.63;;;13.13;61.05
13553;BME280;6847;48.830;9.116;2023-02-24T08:47:26;97127.06;;;13.19;61.07
13553;BME280;6847;48.830;9.116;2023-02-24T08:49:56;97094.38;;;13.10;60.63
13553;BME280;6847;48.830;9.116;2023-02-24T08:52:26;97117.88;;;13.37;60.71
13553;BME280;6847;48.830;9.116;2023-02-24T08:54:54;97116.59;;;13.43;60.65
13553;BME280;6847;48.830;9.116;2023-02-24T08:57:28;97089.06;;;13.36;60.19
13553;BME280;6847;48.830;9.116;2023-02-24T09:00:00;97113.63;;;13.62;60.39
13553;BME280;6847;48.830;9.116;2023-02-24T09:02:31;97114.28;;;13.67;60.15
13553;BME280;6847;48.830;9.116;2023-02-24T09:05:06;97116.69;;;13.69;60.43
13553;BME280;6847;48.830;9.116;2023-02-24T09:07:36;97113.66;;;13.70;60.49
13553;BME280;6847;48.830;9.116;2023-02-24T09:10:06;97114.78;;;13.69;60.52
13553;BME280;6847;48.830;9.116;2023-02-24T09:12:37;97110.16;;;13.79;60.12
13553;BME280;6847;48.830;9.116;2023-02-24T09:15:07;97106.97;;;13.94;60.01
13553;BME280;6847;48.830;9.116;2023-02-24T09:17:34;97107.16;;;14.06;59.98
13553;BME280;6847;48.830;9.116;2023-02-24T09:20:16;97102.53;;;14.15;60.13
13553;BME280;6847;48.830;9.116;2023-02-24T09:23:20;97106.69;;;14.21;60.11
13553;BME280;6847;48.830;9.116;2023-02-24T09:25:54;97098.84;;;14.28;60.09
13553;BME280;6847;48.830;9.116;2023-02-24T09:28:24;97047.28;;;14.06;59.96
13553;BME280;6847;48.830;9.116;2023-02-24T09:30:52;97082.06;;;14.43;59.81
13553;BME280;6847;48.830;9.116;2023-02-24T09:33:22;97088.75;;;14.63;59.78
13553;BME280;6847;48.830;9.116;2023-02-24T09:35:51;97078.66;;;14.64;59.92
13553;BME280;6847;48.830;9.116;2023-02-24T09:38:24;97080.88;;;14.79;59.63
13553;BME280;6847;48.830;9.116;2023-02-24T09:41:20;97093.34;;;14.97;59.78
13553;BME280;6847;48.830;9.116;2023-02-24T09:43:58;97045.00;;;14.77;59.64
13553;BME280;6847;48.830;9.116;2023-02-24T09:46:31;97083.19;;;15.15;59.65
13553;BME280;6847;48.830;9.116;2023-02-24T09:49:04;97087.84;;;15.14;60.14
13553;BME280;6847;48.830;9.116;2023-02-24T09:51:33;97080.16;;;15.16;59.88
13553;BME280;6847;48.830;9.116;2023-02-24T09:54:13;97076.44;;;15.21;59.89
13553;BME280;6847;48.830;9.116;2023-02-24T09:56:43;97073.38;;;15.23;59.58
13553;BME280;6847;48.830;9.116;2023-02-24T09:59:21;97074.19;;;15.23;59.54
13553;BME280;6847;48.830;9.116;2023-02-24T10:01:57;97062.63;;;15.26;59.45
13553;BME280;6847;48.830;9.116;2023-02-24T10:04:49;97075.13;;;15.27;59.52
13553;BME280;6847;48.830;9.116;2023-02-24T10:07:25;97064.06;;;15.24;59.51
13553;BME280;6847;48.830;9.116;2023-02-24T10:09:57;97058.78;;;15.18;59.58
13553;BME280;6847;48.830;9.116;2023-02-24T10:12:46;97003.78;;;14.87;59.39
13553;BME280;6847;48.830;9.116;2023-02-24T10:15:19;97026.91;;;15.10;59.10
13553;BME280;6847;48.830;9.116;2023-02-24T10:18:24;97059.19;;;15.38;59.22
13553;BME280;6847;48.830;9.116;2023-02-24T10:20:56;97062.53;;;15.43;59.22
13553;BME280;6847;48.830;9.116;2023-02-24T10:23:30;97071.19;;;15.45;59.14
13553;BME280;6847;48.830;9.116;2023-02-24T10:26:03;97067.34;;;15.46;59.23
13553;BME280;6847;48.830;9.116;2023-02-24T10:28:35;97067.84;;;15.40;59.29
13553;BME280;6847;48.830;9.116;2023-02-24T10:31:11;97064.56;;;15.26;59.53
13553;BME280;6847;48.830;9.116;2023-02-24T10:33:50;97063.63;;;15.13;59.52
13553;BME280;6847;48.830;9.116;2023-02-24T10:36:19;97057.72;;;15.02;59.48
13553;BME280;6847;48.830;9.116;2023-02-24T10:38:55;97055.84;;;14.94;59.67
13553;BME280;6847;48.830;9.116;2023-02-24T10:41:22;97052.34;;;14.85;59.60
13553;BME280;6847;48.830;9.116;2023-02-24T10:43:54;97046.59;;;14.78;59.75
13553;BME280;6847;48.830;9.116;2023-02-24T10:46:26;97050.28;;;14.73;59.70
13553;BME280;6847;48.830;9.116;2023-02-24T10:48:59;97029.16;;;14.62;59.58
13553;BME280;6847;48.830;9.116;2023-02-24T10:51:30;97037.16;;;14.67;59.59
13553;BME280;6847;48.830;9.116;2023-02-24T10:54:13;97033.78;;;14.70;59.45
13553;BME280;6847;48.830;9.116;2023-02-24T10:57:03;96974.41;;;14.29;59.74
13553;BME280;6847;48.830;9.116;2023-02-24T10:59:47;97037.19;;;14.58;59.83
13553;BME280;6847;48.830;9.116;2023-02-24T11:02:49;97020.97;;;14.62;59.21
13553;BME280;6847;48.830;9.116;2023-02-24T11:05:37;97030.75;;;14.63;59.26
13553;BME280;6847;48.830;9.116;2023-02-24T11:08:12;97016.34;;;14.54;59.35
13553;BME280;6847;48.830;9.116;2023-02-24T11:11:06;97010.91;;;14.54;59.23
13553;BME280;6847;48.830;9.116;2023-02-24T11:13:33;97004.97;;;14.52;59.46
13553;BME280;6847;48.830;9.116;2023-02-24T11:16:19;97006.28;;;14.46;59.20
13553;BME280;6847;48.830;9.116;2023-02-24T11:19:06;97002.16;;;14.39;59.52
13553;BME280;6847;48.830;9.116;2023-02-24T11:21:34;97001.31;;;14.30;59.40
13553;BME280;6847;48.830;9.116;2023-02-24T11:24:04;96994.44;;;14.24;59.49
13553;BME280;6847;48.830;9.116;2023-02-24T11:26:34;96991.72;;;14.16;59.41
13553;BME280;6847;48.830;9.116;2023-02-24T11:29:10;96992.34;;;14.21;59.19
13553;BME280;6847;48.830;9.116;2023-02-24T11:31:55;96965.63;;;14.15;59.29
13553;BME280;6847;48.830;9.116;2023-02-24T11:34:31;96974.56;;;14.32;59.29
13553;BME280;6847;48.830;9.116;2023-02-24T11:37:07;96973.28;;;14.38;58.89
13553;BME280;6847;48.830;9.116;2023-02-24T11:39:49;96963.84;;;14.36;59.05
13553;BME280;6847;48.830;9.116;2023-02-24T11:42:21;96960.50;;;14.39;58.88
13553;BME280;6847;48.830;9.116;2023-02-24T11:44:53;96944.13;;;14.30;59.04
13553;BME280;6847;48.830;9.116;2023-02-24T11:47:27;96946.22;;;14.42;58.93
13553;BME280;6847;48.830;9.116;2023-02-24T11:50:04;96904.13;;;14.22;59.30
13553;BME280;6847;48.830;9.116;2023-02-24T11:52:35;96912.72;;;14.41;59.08
13553;BME280;6847;48.830;9.116;2023-02-24T11:55:13;96913.97;;;14.53;59.10
13553;BME280;6847;48.830;9.116;2023-02-24T11:57:46;96897.00;;;14.56;58.93
13553;BME280;6847;48.830;9.116;2023-02-24T12:00:20;96911.38;;;14.65;58.78
13553;BME280;6847;48.830;9.116;2023-02-24T12:02:53;96917.63;;;14.65;58.95
13553;BME280;6847;48.830;9.116;2023-02-24T12:05:25;96908.34;;;14.66;58.81
13553;BME280;6847;48.830;9.116;2023-02-24T12:07:56;96902.88;;;14.66;58.66
13553;BME280;6847;48.830;9.116;2023-02-24T12:10:28;96898.50;;;14.74;58.74
13553;BME280;6847;48.830;9.116;2023-02-24T12:13:07;96895.41;;;14.84;58.90
13553;BME280;6847;48.830;9.116;2023-02-24T12:15:42;96877.09;;;14.93;58.57
13553;BME280;6847;48.830;9.116;2023-02-24T12:18:14;96873.34;;;15.06;58.40
13553;BME280;6847;48.830;9.116;2023-02-24T12:20:47;96856.69;;;15.20;58.35
13553;BME280;6847;48.830;9.116;2023-02-24T12:23:21;96862.81;;;15.38;58.07
13553;BME280;6847;48.830;9.116;2023-02-24T12:26:02;96848.22;;;15.63;57.92
13553;BME280;6847;48.830;9.116;2023-02-24T12:28:47;96831.19;;;15.78;57.82
13553;BME280;6847;48.830;9.116;2023-02-24T12:31:23;96845.16;;;16.10;57.55
13553;BME280;6847;48.830;9.116;2023-02-24T12:34:03;96790.09;;;15.96;57.41
13553;BME280;6847;48.830;9.116;2023-02-24T12:36:54;96840.88;;;16.45;57.57
13553;BME280;6847;48.830;9.116;2023-02-24T12:39:36;96811.28;;;16.47;57.10
13553;BME280;6847;48.830;9.116;2023-02-24T12:42:09;96838.66;;;16.84;57.10
13553;BME280;6847;48.830;9.116;2023-02-24T12:44:46;96831.66;;;16.98;56.96
13553;BME280;6847;48.830;9.116;2023-02-24T12:47:23;96823.78;;;17.21;56.81
13553;BME280;6847;48.830;9.116;2023-02-24T12:52:51;96815.03;;;17.99;56.67
13553;BME280;6847;48.830;9.116;2023-02-24T12:55:22;96830.09;;;18.37;55.90
13553;BME280;6847;48.830;9.116;2023-02-24T12:57:59;96819.84;;;18.49;55.89
13553;BME280;6847;48.830;9.116;2023-02-24T13:00:32;96816.41;;;18.68;55.89
13553;BME280;6847;48.830;9.116;2023-02-24T13:03:08;96817.69;;;18.74;55.82
13553;BME280;6847;48.830;9.116;2023-02-24T13:05:47;96818.41;;;18.71;56.24
13553;BME280;6847;48.830;9.116;2023-02-24T13:08:27;96821.44;;;18.66;56.13
13553;BME280;6847;48.830;9.116;2023-02-24T13:11:02;96812.75;;;18.48;56.39
13553;BME280;6847;48.830;9.116;2023-02-24T13:13:41;96808.69;;;18.27;56.83
13553;BME280;6847;48.830;9.116;2023-02-24T13:16:26;96797.00;;;17.98;57.06
13553;BME280;6847;48.830;9.116;2023-02-24T13:19:04;96789.72;;;17.74;56.93
13553;BME280;6847;48.830;9.116;2023-02-24T13:21:32;96793.81;;;17.53;56.86
13553;BME280;6847;48.830;9.116;2023-02-24T13:24:02;96726.84;;;16.94;57.01
13553;BME280;6847;48.830;9.116;2023-02-24T13:26:32;96745.00;;;16.87;57.29
13553;BME280;6847;48.830;9.116;2023-02-24T13:29:07;96784.66;;;16.93;57.15
13553;BME280;6847;48.830;9.116;2023-02-24T13:31:55;96780.13;;;16.73;57.08
13553;BME280;6847;48.830;9.116;2023-02-24T13:34:30;96751.44;;;16.30;57.49
13553;BME280;6847;48.830;9.116;2023-02-24T13:36:59;96763.59;;;16.20;57.50
13553;BME280;6847;48.830;9.116;2023-02-24T13:39:35;96768.72;;;16.10;57.53
13553;BME280;6847;48.830;9.116;2023-02-24T13:42:15;96761.75;;;16.00;57.45
13553;BME280;6847;48.830;9.116;2023-02-24T13:44:53;96747.88;;;15.93;57.29
13553;BME280;6847;48.830;9.116;2023-02-24T13:47:44;96737.97;;;15.88;57.08
13553;BME280;6847;48.830;9.116;2023-02-24T13:50:19;96730.22;;;15.78;57.21
13553;BME280;6847;48.830;9.116;2023-02-24T13:53:11;96733.78;;;15.91;57.04